Time;durP1;ratioP1;P1;durP2;ratioP2;P2;SDS_P1;SDS_P2;PMS_P1;PMS_P2;Temp;Humidity;BMP_temperature;BMP_pressure;BME280_temperature;BME280_humidity;BME280_pressure;Samples;Min_cycle;Max_cycle;Signal;HPM_P1;HPM_P2
2021/10/11 00:00:25;;;;;;;31.83;15.32;;;282.10;2278.40;;;;;;5052503;28;20055;-77
2021/10/11 00:02:51;;;;;;;23.00;12.60;;;282.20;2278.40;;;;;;5051072;28;20454;-76
2021/10/11 00:05:17;;;;;;;17.08;9.48;;;282.20;2278.40;;;;;;5054656;28;20051;-76
2021/10/11 00:07:43;;;;;;;16.38;9.70;;;282.30;2278.40;;;;;;5051282;28;20077;-75
2021/10/11 00:10:15;;;;;;;12.50;9.10;;;282.10;2278.40;;;;;;5069274;28;20501;-76
2021/10/11 00:12:41;;;;;;;16.45;10.60;;;282.20;2278.40;;;;;;5052884;28;20036;-77
2021/10/11 00:15:07;;;;;;;17.23;11.48;;;282.10;2278.40;;;;;;5071376;28;20021;-77
2021/10/11 00:17:32;;;;;;;18.70;11.57;;;282.10;2278.40;;;;;;5067480;28;20036;-77
2021/10/11 00:19:58;;;;;;;17.88;11.00;;;282.20;2278.40;;;;;;5073926;28;20017;-76
2021/10/11 00:22:24;;;;;;;15.95;10.30;;;282.10;2278.40;;;;;;5073120;28;20020;-77
2021/10/11 00:24:50;;;;;;;17.13;10.77;;;282.10;2278.40;;;;;;5070068;28;20471;-76
2021/10/11 00:27:17;;;;;;;17.88;12.18;;;282.20;2278.40;;;;;;5075236;28;20025;-76
2021/10/11 00:29:43;;;;;;;19.30;10.93;;;282.10;2278.40;;;;;;5059616;28;20017;-76
2021/10/11 00:32:09;;;;;;;26.55;15.40;;;282.20;2278.40;;;;;;5077378;28;20445;-76
2021/10/11 00:34:36;;;;;;;21.33;14.57;;;282.20;2278.40;;;;;;5076153;28;20031;-76
2021/10/11 00:37:02;;;;;;;20.60;11.75;;;282.30;2278.40;;;;;;5046142;28;20032;-76
2021/10/11 00:39:28;;;;;;;15.00;10.38;;;282.20;2278.40;;;;;;5066369;28;20460;-77
2021/10/11 00:41:54;;;;;;;21.83;13.32;;;282.20;2278.40;;;;;;5052692;28;20086;-79
2021/10/11 00:44:19;;;;;;;16.45;11.38;;;282.20;2278.40;;;;;;5079231;28;20033;-76
2021/10/11 00:46:45;;;;;;;14.63;9.25;;;282.20;2278.40;;;;;;5065321;28;20456;-75
2021/10/11 00:49:11;;;;;;;15.15;10.65;;;282.20;2278.40;;;;;;5079068;28;20107;-77
2021/10/11 00:51:38;;;;;;;16.88;10.93;;;282.10;2278.40;;;;;;5070337;28;20108;-78
2021/10/11 00:54:04;;;;;;;17.25;11.02;;;282.20;2278.40;;;;;;5056269;28;20062;-76
2021/10/11 00:56:31;;;;;;;21.70;12.63;;;282.10;2278.40;;;;;;5050989;28;20432;-77
2021/10/11 00:58:56;;;;;;;17.48;11.82;;;282.10;2278.40;;;;;;5070653;28;20052;-77
2021/10/11 01:01:22;;;;;;;19.23;14.02;;;282.10;2278.40;;;;;;5071316;28;20052;-76
2021/10/11 01:03:48;;;;;;;18.95;14.15;;;282.00;2278.40;;;;;;5068672;28;20028;-77
2021/10/11 01:06:14;;;;;;;20.60;13.73;;;282.00;2278.40;;;;;;5065351;28;20067;-76
2021/10/11 01:08:41;;;;;;;18.00;14.25;;;281.90;2278.40;;;;;;5085987;28;20036;-77
2021/10/11 01:11:07;;;;;;;24.08;14.20;;;282.00;2278.40;;;;;;5064166;28;20035;-77
2021/10/11 01:13:32;;;;;;;21.35;15.63;;;281.90;2278.40;;;;;;5065856;28;20115;-77
2021/10/11 01:15:58;;;;;;;21.58;14.10;;;282.00;2278.40;;;;;;5061325;28;20053;-76
2021/10/11 01:18:24;;;;;;;20.42;14.38;;;282.00;2278.40;;;;;;5067157;28;20380;-76
2021/10/11 01:20:50;;;;;;;20.35;14.02;;;281.90;2278.40;;;;;;5074141;28;20024;-76
2021/10/11 01:23:16;;;;;;;20.95;15.13;;;281.90;2278.40;;;;;;5080181;28;20032;-75
2021/10/11 01:25:42;;;;;;;23.27;14.68;;;281.90;2278.40;;;;;;5070665;28;20490;-76
2021/10/11 01:28:08;;;;;;;24.92;17.02;;;281.90;2278.40;;;;;;5065383;28;20028;-76
2021/10/11 01:30:33;;;;;;;21.50;16.73;;;281.90;2278.40;;;;;;5052871;28;20036;-79
2021/10/11 01:32:59;;;;;;;21.50;15.80;;;282.00;2278.40;;;;;;5058906;28;20024;-77
2021/10/11 01:35:25;;;;;;;21.38;14.65;;;282.00;2278.40;;;;;;5052300;28;20108;-76
2021/10/11 01:37:51;;;;;;;20.75;13.93;;;282.00;2278.40;;;;;;5069159;28;20033;-77
2021/10/11 01:40:19;;;;;;;20.45;14.55;;;282.00;2278.40;;;;;;5059455;28;20032;-77
2021/10/11 01:42:44;;;;;;;24.42;14.88;;;282.00;2278.40;;;;;;5071986;28;20387;-77
2021/10/11 01:45:10;;;;;;;24.30;14.48;;;282.00;2278.40;;;;;;5074556;28;20103;-78
2021/10/11 01:47:36;;;;;;;21.65;13.77;;;282.00;2278.40;;;;;;5074428;28;20036;-77
2021/10/11 01:50:04;;;;;;;20.00;13.95;;;281.90;2278.40;;;;;;5074481;28;20430;-78
2021/10/11 01:52:29;;;;;;;20.15;13.93;;;282.00;2278.40;;;;;;5055760;28;20630;-76
2021/10/11 01:54:55;;;;;;;17.10;13.02;;;282.00;2278.40;;;;;;5074492;28;20092;-77
2021/10/11 01:57:21;;;;;;;27.10;14.95;;;282.00;2278.40;;;;;;5073916;28;20032;-76
2021/10/11 01:59:47;;;;;;;21.48;14.25;;;282.00;2278.40;;;;;;5074323;28;20024;-76
2021/10/11 02:02:12;;;;;;;19.58;13.70;;;282.00;2278.40;;;;;;5065041;28;20388;-76
2021/10/11 02:04:38;;;;;;;22.60;14.70;;;282.00;2278.40;;;;;;5074001;28;20523;-77
2021/10/11 02:07:04;;;;;;;21.40;14.57;;;282.00;2278.40;;;;;;5062631;28;20032;-78
2021/10/11 02:09:30;;;;;;;21.17;14.02;;;282.00;2278.40;;;;;;5073368;28;20085;-76
2021/10/11 02:11:56;;;;;;;21.10;14.70;;;282.10;2278.40;;;;;;5060523;28;20028;-78
2021/10/11 02:14:21;;;;;;;20.48;13.25;;;281.90;2278.40;;;;;;5071807;28;20453;-77
2021/10/11 02:16:47;;;;;;;22.05;16.42;;;281.90;2278.40;;;;;;5073618;28;20036;-80
2021/10/11 02:19:13;;;;;;;20.63;15.52;;;281.90;2278.40;;;;;;5073755;28;20025;-78
2021/10/11 02:21:38;;;;;;;24.38;14.77;;;281.90;2278.40;;;;;;5074094;28;20035;-80
2021/10/11 02:24:04;;;;;;;25.95;15.40;;;282.00;2278.40;;;;;;5073750;28;20020;-76
2021/10/11 02:26:30;;;;;;;28.63;14.85;;;281.90;2278.40;;;;;;5073743;28;20028;-76
2021/10/11 02:28:56;;;;;;;22.42;13.77;;;281.90;2278.40;;;;;;5073436;28;20020;-77
2021/10/11 02:31:22;;;;;;;19.75;14.02;;;281.90;2278.40;;;;;;5073361;28;20051;-76
2021/10/11 02:33:49;;;;;;;24.58;15.70;;;281.80;2278.40;;;;;;5073764;28;20028;-77
2021/10/11 02:36:15;;;;;;;23.30;14.75;;;281.70;2278.40;;;;;;5073316;28;20028;-78
2021/10/11 02:38:41;;;;;;;26.27;16.77;;;281.70;2278.40;;;;;;5073528;28;20016;-77
2021/10/11 02:41:07;;;;;;;24.70;16.33;;;281.70;2278.40;;;;;;5073311;28;20062;-76
2021/10/11 02:43:33;;;;;;;21.58;15.38;;;281.70;2278.40;;;;;;5072251;28;20050;-76
2021/10/11 02:45:58;;;;;;;24.08;15.07;;;281.60;2278.40;;;;;;5072934;28;20021;-76
2021/10/11 02:48:24;;;;;;;28.73;17.52;;;281.60;2278.40;;;;;;5073456;28;20051;-76
2021/10/11 02:50:50;;;;;;;26.08;15.90;;;281.60;2278.40;;;;;;5073049;28;20467;-77
2021/10/11 02:53:16;;;;;;;25.48;16.95;;;256.90;2252.80;;;;;;5072216;28;20029;-76
2021/10/11 02:55:42;;;;;;;21.10;15.93;;;256.90;2252.80;;;;;;5072392;28;20024;-78
2021/10/11 02:58:08;;;;;;;24.20;17.65;;;256.90;2252.80;;;;;;5071739;28;20032;-75
2021/10/11 03:00:34;;;;;;;25.77;16.90;;;256.90;2252.80;;;;;;5071982;28;20021;-77
2021/10/11 03:03:00;;;;;;;30.13;18.08;;;256.90;2252.80;;;;;;5071440;28;20029;-77
2021/10/11 03:05:25;;;;;;;24.92;17.75;;;256.90;2252.80;;;;;;5072981;28;20029;-76
2021/10/11 03:07:51;;;;;;;25.80;16.55;;;256.90;2252.80;;;;;;5072791;28;20033;-77
2021/10/11 03:10:17;;;;;;;27.27;17.42;;;256.90;2252.80;;;;;;5072846;28;20028;-77
2021/10/11 03:12:43;;;;;;;26.25;20.27;;;256.90;2252.80;;;;;;5078435;28;20103;-76
2021/10/11 03:15:09;;;;;;;26.45;19.00;;;256.90;2252.80;;;;;;5075886;28;20032;-76
2021/10/11 03:17:34;;;;;;;32.72;20.35;;;256.90;2252.80;;;;;;5051999;28;20036;-77
2021/10/11 03:20:00;;;;;;;30.88;19.58;;;281.60;2278.40;;;;;;5079301;28;20032;-76
2021/10/11 03:22:27;;;;;;;28.35;19.10;;;281.70;2278.40;;;;;;5075437;28;20537;-76
2021/10/11 03:24:53;;;;;;;30.20;18.45;;;281.70;2278.40;;;;;;5061051;28;20851;-76
2021/10/11 03:27:19;;;;;;;33.17;21.05;;;281.70;2278.40;;;;;;5076307;28;20028;-76
2021/10/11 03:29:45;;;;;;;34.50;20.63;;;281.70;2278.40;;;;;;5072130;28;20021;-76
2021/10/11 03:32:11;;;;;;;31.63;19.67;;;281.70;2278.40;;;;;;5072561;28;20040;-78
2021/10/11 03:34:36;;;;;;;29.65;19.35;;;281.70;2278.40;;;;;;5053102;28;20041;-75
2021/10/11 03:37:02;;;;;;;28.52;19.75;;;281.80;2278.40;;;;;;5072617;28;20036;-76
2021/10/11 03:39:28;;;;;;;30.15;18.90;;;281.80;2278.40;;;;;;5057442;28;20447;-76
2021/10/11 03:41:54;;;;;;;29.83;20.13;;;281.90;2278.40;;;;;;5072216;28;20040;-76
2021/10/11 03:44:20;;;;;;;27.63;19.70;;;281.90;2278.40;;;;;;5085391;28;20035;-75
2021/10/11 03:46:46;;;;;;;36.28;20.77;;;282.00;2278.40;;;;;;5054152;28;20127;-75
2021/10/11 03:49:11;;;;;;;28.02;20.45;;;282.00;2278.40;;;;;;5081085;28;20086;-75
2021/10/11 03:51:37;;;;;;;26.88;19.90;;;282.10;2278.40;;;;;;5070404;28;20031;-75
2021/10/11 03:54:03;;;;;;;35.70;20.30;;;282.00;2278.40;;;;;;5051360;28;20040;-75
2021/10/11 03:56:28;;;;;;;23.65;18.13;;;282.00;2278.40;;;;;;5083513;28;20123;-75
2021/10/11 03:58:54;;;;;;;29.38;20.30;;;282.00;2278.40;;;;;;5053884;28;20040;-76
2021/10/11 04:01:20;;;;;;;32.50;20.88;;;281.90;2278.40;;;;;;5053457;28;20483;-75
2021/10/11 04:03:46;;;;;;;32.85;20.60;;;281.90;2278.40;;;;;;5071976;28;20396;-75
2021/10/11 04:06:12;;;;;;;30.95;21.13;;;281.90;2278.40;;;;;;5069781;28;20387;-75
2021/10/11 04:08:41;;;;;;;29.70;20.35;;;281.90;2278.40;;;;;;5072091;28;20705;-75
2021/10/11 04:13:43;;;;;;;28.88;19.77;;;281.80;2278.40;;;;;;5072222;28;20383;-75
2021/10/11 04:16:10;;;;;;;31.13;20.40;;;281.80;2278.40;;;;;;5061646;28;20048;-75
2021/10/11 04:18:35;;;;;;;29.33;20.88;;;281.80;2278.40;;;;;;5053417;28;20111;-75
2021/10/11 04:21:01;;;;;;;28.90;21.30;;;281.80;2278.40;;;;;;5071587;28;20150;-75
2021/10/11 04:23:28;;;;;;;29.77;20.45;;;281.70;2278.40;;;;;;5071332;28;20111;-75
2021/10/11 04:25:54;;;;;;;32.95;21.92;;;281.90;2278.40;;;;;;5073479;28;20023;-74
2021/10/11 04:28:20;;;;;;;31.83;21.15;;;281.90;2278.40;;;;;;5073941;28;20028;-74
2021/10/11 04:30:47;;;;;;;35.88;21.92;;;281.80;2278.40;;;;;;5073369;28;20013;-74
2021/10/11 04:33:13;;;;;;;33.78;20.00;;;281.80;2278.40;;;;;;5060783;28;20475;-76
2021/10/11 04:35:39;;;;;;;31.00;20.95;;;281.90;2278.40;;;;;;5083121;28;20073;-76
2021/10/11 04:38:06;;;;;;;28.02;20.38;;;281.90;2278.40;;;;;;5069832;28;20013;-77
2021/10/11 04:40:32;;;;;;;30.50;21.05;;;281.90;2278.40;;;;;;5056856;28;20040;-76
2021/10/11 04:42:58;;;;;;;36.40;21.10;;;282.00;2278.40;;;;;;5070746;28;20029;-76
2021/10/11 04:45:28;;;;;;;32.00;20.85;;;282.10;2278.40;;;;;;5052723;28;20063;-76
2021/10/11 04:47:55;;;;;;;31.00;21.92;;;282.00;2278.40;;;;;;5071198;28;20025;-77
2021/10/11 04:50:21;;;;;;;31.02;21.88;;;282.10;2278.40;;;;;;5069626;28;20036;-77
2021/10/11 04:52:47;;;;;;;29.75;21.55;;;282.10;2278.40;;;;;;5053099;28;20036;-77
2021/10/11 04:55:13;;;;;;;31.65;22.42;;;282.00;2278.40;;;;;;5070400;28;20024;-76
2021/10/11 04:57:38;;;;;;;36.30;23.58;;;282.00;2278.40;;;;;;5065381;28;20060;-76
2021/10/11 05:00:05;;;;;;;34.88;21.52;;;282.00;2278.40;;;;;;5063074;28;20070;-75
2021/10/11 05:02:30;;;;;;;33.45;22.00;;;282.00;2278.40;;;;;;5071036;28;20020;-76
2021/10/11 05:04:56;;;;;;;33.88;23.15;;;282.00;2278.40;;;;;;5052996;28;20020;-77
2021/10/11 05:07:22;;;;;;;31.55;24.25;;;282.10;2278.40;;;;;;5070344;28;20028;-76
2021/10/11 05:09:47;;;;;;;30.60;21.48;;;282.10;2278.40;;;;;;5080389;28;20126;-74
2021/10/11 05:12:13;;;;;;;32.67;22.27;;;282.10;2278.40;;;;;;5071947;28;20029;-76
2021/10/11 05:14:39;;;;;;;33.35;20.48;;;282.10;2278.40;;;;;;5071101;28;20035;-76
2021/10/11 05:17:05;;;;;;;30.65;22.17;;;282.10;2278.40;;;;;;5071044;28;20539;-76
2021/10/11 05:19:31;;;;;;;35.40;21.35;;;282.10;2278.40;;;;;;5075735;28;20037;-75
2021/10/11 05:21:57;;;;;;;32.22;21.90;;;282.10;2278.40;;;;;;5060228;28;20024;-75
2021/10/11 05:24:23;;;;;;;30.17;21.50;;;282.10;2278.40;;;;;;5056828;28;20025;-74
2021/10/11 05:26:53;;;;;;;33.20;22.90;;;282.10;2278.40;;;;;;5075339;28;20021;-75
2021/10/11 05:29:20;;;;;;;33.85;22.88;;;282.10;2278.40;;;;;;5058570;28;20043;-76
2021/10/11 05:31:46;;;;;;;33.47;21.20;;;282.20;2278.40;;;;;;5074796;28;20025;-74
2021/10/11 05:34:12;;;;;;;35.17;22.50;;;282.20;2278.40;;;;;;5060904;28;20021;-75
2021/10/11 05:36:38;;;;;;;34.90;23.17;;;282.20;2278.40;;;;;;5074233;28;20082;-75
2021/10/11 05:39:04;;;;;;;36.92;23.85;;;282.30;2278.40;;;;;;5074312;28;20384;-76
2021/10/11 05:41:29;;;;;;;32.97;23.38;;;282.30;2278.40;;;;;;5067506;28;20439;-76
2021/10/11 05:43:55;;;;;;;29.70;19.88;;;282.30;2278.40;;;;;;5074894;28;20066;-77
2021/10/11 05:46:21;;;;;;;32.67;21.42;;;282.30;2278.40;;;;;;5056092;28;21002;-76
2021/10/11 05:48:47;;;;;;;32.15;20.23;;;282.40;2278.40;;;;;;5076767;28;20044;-77
2021/10/11 05:51:12;;;;;;;32.72;22.40;;;307.20;2304.00;;;;;;5064325;28;20386;-76
2021/10/11 05:53:38;;;;;;;26.90;19.17;;;307.30;2304.00;;;;;;5081431;28;20033;-77
2021/10/11 05:56:04;;;;;;;28.48;19.23;;;307.30;2304.00;;;;;;5077000;28;20021;-76
2021/10/11 05:58:31;;;;;;;31.40;19.50;;;307.30;2304.00;;;;;;5072637;28;20020;-77
2021/10/11 06:00:57;;;;;;;29.13;19.45;;;307.30;2304.00;;;;;;5061350;28;20391;-76
2021/10/11 06:03:22;;;;;;;28.65;19.17;;;307.30;2304.00;;;;;;5070172;28;20020;-76
2021/10/11 06:05:48;;;;;;;24.13;16.40;;;307.40;2304.00;;;;;;5061997;28;20094;-76
2021/10/11 06:08:15;;;;;;;22.63;15.45;;;307.40;2304.00;;;;;;5086461;28;20024;-75
2021/10/11 06:10:40;;;;;;;27.15;16.05;;;307.50;2304.00;;;;;;5073700;28;20024;-76
2021/10/11 06:13:06;;;;;;;20.35;14.20;;;307.50;2304.00;;;;;;5075026;28;20618;-76
2021/10/11 06:15:32;;;;;;;20.40;14.48;;;307.50;2304.00;;;;;;5074922;28;20093;-76
2021/10/11 06:17:57;;;;;;;22.48;16.17;;;307.50;2304.00;;;;;;5072567;28;20036;-76
2021/10/11 06:20:23;;;;;;;19.23;14.98;;;307.60;2304.00;;;;;;5073043;28;20472;-76
2021/10/11 06:22:50;;;;;;;27.42;15.35;;;307.60;2304.00;;;;;;5071943;28;20491;-75
2021/10/11 06:25:16;;;;;;;23.05;14.13;;;307.60;2304.00;;;;;;5073995;28;20020;-76
2021/10/11 06:27:42;;;;;;;22.88;14.75;;;307.70;2304.00;;;;;;5054848;28;20036;-76
2021/10/11 06:30:08;;;;;;;22.67;15.30;;;307.60;2304.00;;;;;;5074844;28;20030;-75
2021/10/11 06:32:34;;;;;;;22.33;15.68;;;307.60;2304.00;;;;;;5074526;28;20082;-75
2021/10/11 06:34:59;;;;;;;22.13;15.80;;;307.70;2304.00;;;;;;5072519;28;20028;-76
2021/10/11 06:37:25;;;;;;;23.85;15.70;;;307.70;2304.00;;;;;;5076636;28;20499;-75
2021/10/11 06:39:51;;;;;;;25.98;16.77;;;307.70;2304.00;;;;;;5064608;28;20025;-76
2021/10/11 06:42:16;;;;;;;23.75;14.55;;;307.70;2304.00;;;;;;5056272;28;20712;-76
2021/10/11 06:44:42;;;;;;;24.35;16.15;;;307.80;2304.00;;;;;;5073107;28;20020;-75
2021/10/11 06:47:08;;;;;;;24.77;15.77;;;307.70;2304.00;;;;;;5072754;28;20028;-75
2021/10/11 06:49:34;;;;;;;23.63;17.27;;;307.70;2304.00;;;;;;5056953;28;20127;-76
2021/10/11 06:52:00;;;;;;;27.35;16.88;;;307.70;2304.00;;;;;;5054385;28;20025;-75
2021/10/11 06:54:26;;;;;;;22.80;17.10;;;307.70;2304.00;;;;;;5074498;28;20031;-75
2021/10/11 06:56:52;;;;;;;29.00;17.73;;;307.80;2304.00;;;;;;5073296;28;20024;-75
2021/10/11 06:59:18;;;;;;;28.00;17.17;;;307.80;2304.00;;;;;;5054704;28;20037;-76
2021/10/11 07:01:44;;;;;;;30.05;18.20;;;307.90;2304.00;;;;;;5072835;28;20024;-79
2021/10/11 07:04:10;;;;;;;31.75;18.73;;;307.90;2304.00;;;;;;5074705;28;20024;-77
2021/10/11 07:06:36;;;;;;;23.85;17.08;;;307.90;2304.00;;;;;;5072873;28;20071;-76
2021/10/11 07:09:02;;;;;;;22.73;16.35;;;307.90;2304.00;;;;;;5072439;28;20437;-76
2021/10/11 07:11:28;;;;;;;22.30;16.20;;;308.00;2304.00;;;;;;5073237;28;20025;-75
2021/10/11 07:13:54;;;;;;;23.08;16.00;;;308.00;2304.00;;;;;;5073359;28;20394;-76
2021/10/11 07:16:20;;;;;;;29.88;16.48;;;308.00;2304.00;;;;;;5061612;28;20459;-75
2021/10/11 07:18:45;;;;;;;24.70;18.02;;;308.00;2304.00;;;;;;5053229;28;20036;-76
2021/10/11 07:21:11;;;;;;;24.52;17.70;;;308.00;2304.00;;;;;;5053858;28;20116;-75
2021/10/11 07:23:37;;;;;;;20.23;16.02;;;308.00;2304.00;;;;;;5073591;28;20032;-79
2021/10/11 07:26:06;;;;;;;23.13;18.25;;;308.00;2304.00;;;;;;5050181;28;20040;-78
2021/10/11 07:28:31;;;;;;;28.73;15.73;;;307.90;2304.00;;;;;;5058663;28;20044;-77
2021/10/11 07:30:57;;;;;;;17.58;14.27;;;307.90;2304.00;;;;;;5091172;28;20055;-77
2021/10/11 07:33:23;;;;;;;19.77;15.55;;;307.90;2304.00;;;;;;5060730;28;20025;-76
2021/10/11 07:35:50;;;;;;;24.08;15.85;;;307.90;2304.00;;;;;;5074128;28;20065;-76
2021/10/11 07:38:16;;;;;;;23.67;16.33;;;307.90;2304.00;;;;;;5062219;28;20027;-76
2021/10/11 07:40:42;;;;;;;31.33;19.17;;;308.00;2304.00;;;;;;5052773;28;20028;-76
2021/10/11 07:43:08;;;;;;;33.72;21.33;;;308.10;2304.00;;;;;;5054215;28;20025;-76
2021/10/11 07:45:33;;;;;;;33.35;25.27;;;308.10;2304.00;;;;;;5073106;28;20505;-77
2021/10/11 07:47:59;;;;;;;30.98;22.27;;;308.10;2304.00;;;;;;5064595;28;20089;-77
2021/10/11 07:50:25;;;;;;;32.65;21.08;;;308.10;2304.00;;;;;;5055030;28;20781;-77
2021/10/11 07:52:51;;;;;;;53.75;33.55;;;308.10;2304.00;;;;;;5053762;28;20039;-76
2021/10/11 07:55:16;;;;;;;37.05;23.80;;;332.80;2329.60;;;;;;5071015;28;20054;-75
2021/10/11 07:57:43;;;;;;;39.92;24.52;;;308.10;2304.00;;;;;;5072344;28;20112;-75
2021/10/11 08:00:11;;;;;;;28.15;16.65;;;308.10;2304.00;;;;;;5046709;28;20506;-75
2021/10/11 08:02:37;;;;;;;24.00;14.38;;;308.10;2304.00;;;;;;5068564;28;20025;-75
2021/10/11 08:05:04;;;;;;;26.60;17.05;;;308.10;2304.00;;;;;;5081660;28;20463;-75
2021/10/11 08:07:30;;;;;;;37.00;22.35;;;308.00;2304.00;;;;;;5082192;28;20181;-75
2021/10/11 08:09:56;;;;;;;26.35;15.52;;;308.00;2304.00;;;;;;5052808;28;20507;-75
2021/10/11 08:12:21;;;;;;;19.77;12.68;;;308.00;2304.00;;;;;;5064416;28;20078;-75
2021/10/11 08:14:47;;;;;;;18.75;11.93;;;308.00;2304.00;;;;;;5070390;28;20028;-76
2021/10/11 08:17:13;;;;;;;27.30;13.05;;;308.00;2304.00;;;;;;5065963;28;20076;-76
2021/10/11 08:19:39;;;;;;;19.55;11.82;;;308.10;2304.00;;;;;;5069797;28;20028;-76
2021/10/11 08:22:05;;;;;;;19.95;13.63;;;308.10;2304.00;;;;;;5070940;28;20027;-76
2021/10/11 08:24:31;;;;;;;23.98;16.35;;;332.80;2329.60;;;;;;5057284;28;20031;-76
2021/10/11 08:26:57;;;;;;;24.70;17.33;;;332.80;2329.60;;;;;;5065101;28;20487;-76
2021/10/11 08:29:23;;;;;;;20.92;14.30;;;332.80;2329.60;;;;;;5068951;28;20039;-76
2021/10/11 08:31:48;;;;;;;20.73;14.30;;;332.80;2329.60;;;;;;5070942;28;20379;-77
2021/10/11 08:34:14;;;;;;;32.50;24.38;;;308.00;2304.00;;;;;;5069311;28;20485;-76
2021/10/11 08:36:40;;;;;;;37.75;24.38;;;308.00;2304.00;;;;;;5062819;28;20097;-75
2021/10/11 08:39:06;;;;;;;33.20;19.85;;;307.90;2304.00;;;;;;5072642;28;20046;-76
2021/10/11 08:41:32;;;;;;;31.35;22.33;;;307.90;2304.00;;;;;;5053656;28;20506;-76
2021/10/11 08:43:58;;;;;;;33.25;22.48;;;307.90;2304.00;;;;;;5071429;28;20021;-76
2021/10/11 08:46:24;;;;;;;36.58;21.40;;;307.90;2304.00;;;;;;5069980;28;20029;-76
2021/10/11 08:48:50;;;;;;;58.97;32.40;;;307.90;2304.00;;;;;;5070114;28;20438;-76
2021/10/11 08:51:16;;;;;;;49.35;30.67;;;307.90;2304.00;;;;;;5069535;28;20096;-75
2021/10/11 08:53:42;;;;;;;37.65;24.08;;;307.90;2304.00;;;;;;5075906;28;20479;-76
2021/10/11 08:56:11;;;;;;;25.52;18.90;;;307.90;2304.00;;;;;;5068959;28;20053;-76
2021/10/11 08:58:49;;;;;;;25.17;15.07;;;307.90;2304.00;;;;;;5069788;28;20078;-76
2021/10/11 09:01:19;;;;;;;20.27;13.65;;;308.00;2304.00;;;;;;5070626;28;20020;-76
2021/10/11 09:03:44;;;;;;;18.88;12.63;;;308.00;2304.00;;;;;;5071168;28;20016;-76
2021/10/11 09:06:12;;;;;;;21.15;13.23;;;308.00;2304.00;;;;;;5049333;28;20036;-76
2021/10/11 09:08:40;;;;;;;28.45;12.18;;;308.10;2304.00;;;;;;5072764;28;20013;-76
2021/10/11 09:11:11;;;;;;;17.02;13.02;;;332.80;2329.60;;;;;;5074755;28;20023;-75
2021/10/11 09:13:44;;;;;;;16.17;11.00;;;332.80;2329.60;;;;;;5050722;28;20047;-76
2021/10/11 09:16:31;;;;;;;18.50;11.98;;;332.80;2329.60;;;;;;5058521;28;20036;-75
2021/10/11 09:19:23;;;;;;;;;;;332.80;2329.60;;;;;;5062426;28;20024;-76
2021/10/11 09:21:49;;;;;;;18.17;11.93;;;332.80;2329.60;;;;;;5068040;28;19913;-76
2021/10/11 09:24:19;;;;;;;20.45;12.23;;;332.80;2329.60;;;;;;5070635;28;20031;-78
2021/10/11 09:26:58;;;;;;;14.65;9.77;;;308.10;2304.00;;;;;;5059056;28;20052;-76
2021/10/11 09:29:31;;;;;;;19.90;12.73;;;332.80;2329.60;;;;;;5068495;28;20037;-76
2021/10/11 09:32:15;;;;;;;21.95;12.32;;;332.80;2329.60;;;;;;5068932;28;20107;-76
2021/10/11 09:34:42;;;;;;;19.85;11.80;;;332.80;2329.60;;;;;;5062651;28;20515;-76
2021/10/11 09:37:13;;;;;;;14.80;10.00;;;332.80;2329.60;;;;;;5064998;28;20036;-76
2021/10/11 09:39:41;;;;;;;15.20;10.70;;;332.80;2329.60;;;;;;5045551;28;20052;-75
2021/10/11 09:42:10;;;;;;;19.83;11.77;;;332.80;2329.60;;;;;;5058378;28;20031;-76
2021/10/11 09:44:36;;;;;;;19.73;10.60;;;332.90;2329.60;;;;;;5079894;28;20020;-76
2021/10/11 09:47:10;;;;;;;16.42;10.88;;;333.00;2329.60;;;;;;5046241;28;20139;-77
2021/10/11 09:49:38;;;;;;;18.67;11.88;;;333.00;2329.60;;;;;;5062514;28;20044;-76
2021/10/11 09:52:05;;;;;;;15.20;10.40;;;333.00;2329.60;;;;;;5070774;28;20032;-76
2021/10/11 09:54:32;;;;;;;20.92;12.18;;;333.00;2329.60;;;;;;5069134;28;20090;-77
2021/10/11 09:56:58;;;;;;;18.05;12.07;;;333.00;2329.60;;;;;;5043389;28;20395;-76
2021/10/11 09:59:24;;;;;;;18.95;12.38;;;333.00;2329.60;;;;;;5084368;28;20024;-76
2021/10/11 10:01:50;;;;;;;15.88;11.18;;;333.00;2329.60;;;;;;5051784;28;20041;-76
2021/10/11 10:04:32;;;;;;;23.17;12.43;;;332.90;2329.60;;;;;;5053236;28;20025;-76
2021/10/11 10:07:01;;;;;;;22.67;12.75;;;333.00;2329.60;;;;;;5052520;28;20112;-76
2021/10/11 10:09:28;;;;;;;17.85;11.73;;;332.90;2329.60;;;;;;5075894;28;20029;-76
2021/10/11 10:11:55;;;;;;;16.15;12.25;;;333.00;2329.60;;;;;;5074895;28;20078;-76
2021/10/11 10:14:26;;;;;;;25.00;13.57;;;333.00;2329.60;;;;;;5063523;28;20024;-75
2021/10/11 10:16:53;;;;;;;19.88;12.82;;;333.00;2329.60;;;;;;5072365;28;20503;-77
2021/10/11 10:19:40;;;;;;;16.30;11.13;;;333.00;2329.60;;;;;;5053913;28;20029;-76
2021/10/11 10:22:12;;;;;;;14.45;9.55;;;332.90;2329.60;;;;;;5070710;28;20035;-76
2021/10/11 10:24:38;;;;;;;24.65;13.45;;;332.90;2329.60;;;;;;5055057;28;20152;-75
2021/10/11 10:27:09;;;;;;;16.63;13.02;;;332.90;2329.60;;;;;;5072889;28;20020;-76
2021/10/11 10:29:55;;;;;;;18.02;12.52;;;333.00;2329.60;;;;;;5059361;28;20518;-76
2021/10/11 10:32:21;;;;;;;15.80;11.52;;;333.00;2329.60;;;;;;5070564;28;20041;-76
2021/10/11 10:34:58;;;;;;;26.92;13.70;;;333.00;2329.60;;;;;;5049377;28;20404;-77
2021/10/11 10:37:37;;;;;;;19.17;13.20;;;333.00;2329.60;;;;;;5086194;28;20050;-74
2021/10/11 10:40:11;;;;;;;27.92;13.98;;;333.00;2329.60;;;;;;5075931;28;20391;-76
2021/10/11 10:42:38;;;;;;;22.77;15.85;;;333.10;2329.60;;;;;;5074187;28;20055;-75
2021/10/11 10:45:19;;;;;;;21.55;15.13;;;333.10;2329.60;;;;;;5071324;28;20020;-76
2021/10/11 10:47:47;;;;;;;28.77;17.17;;;333.20;2329.60;;;;;;5054425;28;20380;-76
2021/10/11 10:50:21;;;;;;;23.42;15.32;;;333.20;2329.60;;;;;;5072751;28;20075;-75
2021/10/11 10:52:48;;;;;;;20.15;14.07;;;333.30;2329.60;;;;;;5070944;28;20031;-75
2021/10/11 10:55:14;;;;;;;21.55;14.55;;;333.20;2329.60;;;;;;5070615;28;20465;-75
2021/10/11 10:57:42;;;;;;;24.02;13.80;;;333.20;2329.60;;;;;;5071408;28;20024;-75
2021/10/11 11:00:13;;;;;;;31.38;17.13;;;333.20;2329.60;;;;;;5067096;28;20055;-75
2021/10/11 11:02:51;;;;;;;26.58;17.52;;;333.10;2329.60;;;;;;5071975;28;20048;-75
2021/10/11 11:05:18;;;;;;;30.08;16.42;;;333.20;2329.60;;;;;;5050872;28;20029;-76
2021/10/11 11:07:45;;;;;;;18.52;13.88;;;333.20;2329.60;;;;;;5069861;28;20020;-76
2021/10/11 11:10:20;;;;;;;24.58;16.10;;;333.20;2329.60;;;;;;5071958;28;20104;-76
2021/10/11 11:12:58;;;;;;;21.20;14.50;;;333.20;2329.60;;;;;;5055205;28;20395;-75
2021/10/11 11:15:33;;;;;;;25.38;13.45;;;333.20;2329.60;;;;;;5043858;28;20072;-75
2021/10/11 11:18:01;;;;;;;22.05;12.68;;;333.10;2329.60;;;;;;5056545;28;20369;-74
2021/10/11 11:20:30;;;;;;;22.92;14.95;;;333.10;2329.60;;;;;;5073634;28;20057;-74
2021/10/11 11:23:00;;;;;;;19.88;12.77;;;333.10;2329.60;;;;;;5056170;28;20048;-74
2021/10/11 11:25:29;;;;;;;21.60;14.95;;;333.00;2329.60;;;;;;5061087;28;20749;-73
2021/10/11 11:27:57;;;;;;;19.90;14.63;;;333.00;2329.60;;;;;;5056225;28;20031;-74
2021/10/11 11:30:24;;;;;;;22.00;15.98;;;333.00;2329.60;;;;;;5067384;28;20028;-74
2021/10/11 11:32:52;;;;;;;31.02;19.05;;;333.00;2329.60;;;;;;5072327;28;20085;-73
2021/10/11 11:35:28;;;;;;;29.25;18.95;;;333.00;2329.60;;;;;;5054319;28;20046;-75
2021/10/11 11:37:57;;;;;;;26.65;16.92;;;333.00;2329.60;;;;;;5072199;28;20025;-74
2021/10/11 11:40:26;;;;;;;25.90;18.10;;;333.00;2329.60;;;;;;5054408;28;20028;-74
2021/10/11 11:42:52;;;;;;;22.30;17.42;;;333.00;2329.60;;;;;;5071448;28;20021;-75
2021/10/11 11:45:21;;;;;;;26.38;17.27;;;333.00;2329.60;;;;;;5071881;28;20031;-75
2021/10/11 11:47:47;;;;;;;25.70;18.75;;;333.00;2329.60;;;;;;5071250;28;20099;-74
2021/10/11 11:50:22;;;;;;;27.98;19.63;;;333.00;2329.60;;;;;;5070774;28;20029;-75
2021/10/11 11:53:06;;;;;;;22.92;15.85;;;333.00;2329.60;;;;;;5071330;28;20017;-76
2021/10/11 11:55:32;;;;;;;23.15;17.00;;;333.00;2329.60;;;;;;5068697;28;20060;-76
2021/10/11 11:57:58;;;;;;;25.40;17.63;;;333.10;2329.60;;;;;;5053033;28;20075;-76
2021/10/11 12:00:26;;;;;;;20.92;14.25;;;333.20;2329.60;;;;;;5071591;28;20475;-76